Pickwick, Mississippi
Current Conditions -  °F | °C
As of 12:53 PM on Thursday 30 Oct 2014 (Local Time) from KMCB Reporting Station
Clear Clear  
Wind Chill: 70°   Ceiling: Unl
Heat Index: 70°   Visibility: 10mi
Dew Point: 36°   Wind: 6mph
Humidity: 29%   Direction: NA
Pressure: 30.11"   Gusts: NA
Location:  31.274°N, 89.9542°W
Report Text: KMCB 301753Z AUTO VRB05KT 10SM CLR 21/02 A3011 RMK AO2 SLP193 T02110022 10211 20100 58015
Loading
Personal Weather Stations






























Interactive Weather Map
Tropical Storm Tracking
New forecast layout! Learn more

10-Day Weather Forecast

Advertisements
Track Severe Weather on mobile